PWSweather.com
Personal Weather Stations
Station Observations
KILMORRI1
Goose Lake, Morris, IL 60450

Goose LakeMorris, IL 60450

Lat: 41.34, Lon: -88.3

Elevation: 523

Station Type:

www.gooselakeweather.com

High Low Average
Temperature 88.2°F31.2°C 66.5°F19.2°C 77.7°F25.4°C
Dew Point 78.0°F25.6°C 64.5°F18.1°C 71.8°F22.1°C
Winds 15.0 mph 24.1 kmh Calm Calm 3.0 mph WSW4.8 kmh WSW
Wind Gusts 20.7 mph33.3 kmh -- 4.0 mph6.4 kmh
Humidity 97% 50% 84%
Pressure 29.84 in1010.5 mb 29.71 in1006.1 mb -
Precipitation 0.05 in1.3 mm - -
Hour Temp Dew Point Humidity Winds Wind Gusts Pressure Precip Precip Rate Daily Precip Total
12:00 AM 73.9°F23.3°C 73.0°F22.8°C 97% Calm Calm -- 29.75 in1007.5 mb - 0.00 in0.0 mm 0.00 in0.0 mm
12:10 AM 73.7°F23.2°C 72.8°F22.7°C 97% Calm Calm -- 29.75 in1007.5 mb - 0.00 in0.0 mm 0.00 in0.0 mm
12:20 AM 73.7°F23.2°C 72.8°F22.7°C 97% Calm Calm -- 29.74 in1007.1 mb - 0.00 in0.0 mm 0.00 in0.0 mm
12:30 AM 73.2°F22.9°C 72.3°F22.4°C 97% Calm Calm -- 29.75 in1007.5 mb - 0.00 in0.0 mm 0.00 in0.0 mm
12:40 AM 73.8°F23.2°C 72.9°F22.7°C 97% Calm Calm -- 29.75 in1007.5 mb - 0.00 in0.0 mm 0.00 in0.0 mm
12:50 AM 74.2°F23.4°C 73.3°F22.9°C 97% Calm Calm -- 29.75 in1007.5 mb - 0.00 in0.0 mm 0.00 in0.0 mm
01:00 AM 74.3°F23.5°C 73.4°F23.0°C 97% Calm Calm -- 29.75 in1007.5 mb - 0.00 in0.0 mm 0.00 in0.0 mm
01:10 AM 74.6°F23.7°C 73.7°F23.2°C 97% Calm Calm -- 29.75 in1007.5 mb - 0.00 in0.0 mm 0.00 in0.0 mm
01:20 AM 75.0°F23.9°C 74.1°F23.4°C 97% Calm Calm 1.2 mph1.9 kmh 29.75 in1007.5 mb - 0.00 in0.0 mm 0.00 in0.0 mm
01:30 AM 75.2°F24.0°C 74.3°F23.5°C 97% Calm Calm 1.2 mph1.9 kmh 29.74 in1007.1 mb - 0.00 in0.0 mm 0.00 in0.0 mm
01:40 AM 75.4°F24.1°C 74.5°F23.6°C 97% Calm Calm -- 29.75 in1007.5 mb - 0.00 in0.0 mm 0.00 in0.0 mm
01:50 AM 75.4°F24.1°C 74.5°F23.6°C 97% 3.5 mph ENE5.6 kmh ENE 3.5 mph5.6 kmh 29.74 in1007.1 mb - 0.00 in0.0 mm 0.00 in0.0 mm
02:00 AM 75.3°F24.1°C 74.4°F23.6°C 97% Calm Calm -- 29.73 in1006.8 mb - 0.00 in0.0 mm 0.00 in0.0 mm
02:10 AM 75.5°F24.2°C 74.6°F23.7°C 97% Calm Calm -- 29.74 in1007.1 mb - 0.00 in0.0 mm 0.00 in0.0 mm
02:20 AM 75.5°F24.2°C 74.6°F23.7°C 97% Calm Calm -- 29.74 in1007.1 mb - 0.00 in0.0 mm 0.00 in0.0 mm
02:30 AM 75.7°F24.3°C 74.8°F23.8°C 97% Calm Calm -- 29.74 in1007.1 mb - 0.00 in0.0 mm 0.00 in0.0 mm
02:40 AM 75.9°F24.4°C 74.7°F23.7°C 96% Calm Calm -- 29.73 in1006.8 mb - 0.00 in0.0 mm 0.00 in0.0 mm
02:50 AM 75.7°F24.3°C 74.5°F23.6°C 96% Calm Calm -- 29.73 in1006.8 mb - 0.00 in0.0 mm 0.00 in0.0 mm
03:00 AM 75.3°F24.1°C 74.1°F23.4°C 96% 1.2 mph NE1.9 kmh NE 2.3 mph3.7 kmh 29.73 in1006.8 mb - 0.00 in0.0 mm 0.00 in0.0 mm
03:10 AM 75.2°F24.0°C 74.0°F23.3°C 96% Calm Calm 2.3 mph3.7 kmh 29.73 in1006.8 mb - 0.00 in0.0 mm 0.00 in0.0 mm
03:20 AM 75.2°F24.0°C 74.0°F23.3°C 96% 1.2 mph NW1.9 kmh NW 2.3 mph3.7 kmh 29.73 in1006.8 mb - 0.00 in0.0 mm 0.00 in0.0 mm
03:30 AM 75.5°F24.2°C 74.6°F23.7°C 97% 1.2 mph NW1.9 kmh NW 3.5 mph5.6 kmh 29.73 in1006.8 mb - 0.00 in0.0 mm 0.00 in0.0 mm
03:40 AM 75.4°F24.1°C 74.2°F23.4°C 96% 2.3 mph NW3.7 kmh NW 2.3 mph3.7 kmh 29.74 in1007.1 mb - 0.00 in0.0 mm 0.00 in0.0 mm
03:50 AM 75.5°F24.2°C 74.6°F23.7°C 97% Calm Calm -- 29.73 in1006.8 mb - 0.00 in0.0 mm 0.00 in0.0 mm
04:00 AM 75.4°F24.1°C 74.2°F23.4°C 96% Calm Calm -- 29.74 in1007.1 mb - 0.00 in0.0 mm 0.00 in0.0 mm
04:10 AM 75.4°F24.1°C 74.2°F23.4°C 96% 1.2 mph NW1.9 kmh NW 4.6 mph7.4 kmh 29.74 in1007.1 mb - 0.00 in0.0 mm 0.00 in0.0 mm
04:20 AM 75.5°F24.2°C 74.3°F23.5°C 96% Calm Calm 1.2 mph1.9 kmh 29.74 in1007.1 mb - 0.00 in0.0 mm 0.00 in0.0 mm
04:30 AM 75.7°F24.3°C 74.2°F23.4°C 95% 1.2 mph WNW1.9 kmh WNW 3.5 mph5.6 kmh 29.75 in1007.5 mb - 0.00 in0.0 mm 0.00 in0.0 mm
04:40 AM 75.8°F24.3°C 74.3°F23.5°C 95% 2.3 mph WNW3.7 kmh WNW 3.5 mph5.6 kmh 29.74 in1007.1 mb - 0.00 in0.0 mm 0.00 in0.0 mm
04:50 AM 75.9°F24.4°C 74.3°F23.5°C 95% 1.2 mph WNW1.9 kmh WNW 3.5 mph5.6 kmh 29.75 in1007.5 mb - 0.00 in0.0 mm 0.00 in0.0 mm
05:00 AM 75.8°F24.3°C 74.3°F23.5°C 95% 1.2 mph WNW1.9 kmh WNW 3.5 mph5.6 kmh 29.74 in1007.1 mb - 0.00 in0.0 mm 0.00 in0.0 mm
05:10 AM 75.8°F24.3°C 74.3°F23.5°C 95% 1.2 mph WNW1.9 kmh WNW 2.3 mph3.7 kmh 29.75 in1007.5 mb - 0.00 in0.0 mm 0.00 in0.0 mm
05:20 AM 75.7°F24.3°C 74.2°F23.4°C 95% 1.2 mph WNW1.9 kmh WNW 3.5 mph5.6 kmh 29.75 in1007.5 mb - 0.00 in0.0 mm 0.00 in0.0 mm
05:30 AM 75.4°F24.1°C 73.9°F23.3°C 95% 1.2 mph WNW1.9 kmh WNW 3.5 mph5.6 kmh 29.75 in1007.5 mb - 0.00 in0.0 mm 0.00 in0.0 mm
05:40 AM 75.4°F24.1°C 74.2°F23.4°C 96% 1.2 mph WNW1.9 kmh WNW 3.5 mph5.6 kmh 29.75 in1007.5 mb - 0.00 in0.0 mm 0.00 in0.0 mm
05:50 AM 75.4°F24.1°C 74.2°F23.4°C 96% 1.2 mph WNW1.9 kmh WNW 4.6 mph7.4 kmh 29.75 in1007.5 mb - 0.00 in0.0 mm 0.00 in0.0 mm
06:00 AM 75.3°F24.1°C 73.8°F23.2°C 95% Calm Calm 1.2 mph1.9 kmh 29.75 in1007.5 mb - 0.00 in0.0 mm 0.00 in0.0 mm
06:10 AM 75.2°F24.0°C 73.7°F23.2°C 95% Calm Calm -- 29.75 in1007.5 mb - 0.00 in0.0 mm 0.00 in0.0 mm
06:20 AM 75.3°F24.1°C 74.1°F23.4°C 96% 1.2 mph W1.9 kmh W 2.3 mph3.7 kmh 29.76 in1007.8 mb - 0.00 in0.0 mm 0.00 in0.0 mm
06:30 AM 75.4°F24.1°C 74.2°F23.4°C 96% 2.3 mph WSW3.7 kmh WSW 2.3 mph3.7 kmh 29.76 in1007.8 mb - 0.00 in0.0 mm 0.00 in0.0 mm
06:40 AM 75.6°F24.2°C 74.0°F23.3°C 95% 1.2 mph WSW1.9 kmh WSW 1.2 mph1.9 kmh 29.76 in1007.8 mb - 0.00 in0.0 mm 0.00 in0.0 mm
06:50 AM 75.7°F24.3°C 74.2°F23.4°C 95% 4.6 mph WSW7.4 kmh WSW 5.8 mph9.3 kmh 29.76 in1007.8 mb - 0.00 in0.0 mm 0.00 in0.0 mm
07:00 AM 75.8°F24.3°C 74.2°F23.4°C 95% 1.2 mph WSW1.9 kmh WSW 3.5 mph5.6 kmh 29.77 in1008.1 mb - 0.00 in0.0 mm 0.00 in0.0 mm
07:10 AM 75.9°F24.4°C 74.4°F23.6°C 95% Calm Calm 1.2 mph1.9 kmh 29.77 in1008.1 mb - 0.00 in0.0 mm 0.00 in0.0 mm
07:20 AM 75.7°F24.3°C 74.2°F23.4°C 95% Calm Calm -- 29.77 in1008.1 mb - 0.00 in0.0 mm 0.00 in0.0 mm
07:30 AM 75.7°F24.3°C 74.1°F23.4°C 95% Calm Calm -- 29.77 in1008.1 mb - 0.00 in0.0 mm 0.00 in0.0 mm
07:40 AM 76.3°F24.6°C 74.7°F23.7°C 95% Calm Calm -- 29.77 in1008.1 mb - 0.00 in0.0 mm 0.00 in0.0 mm
07:50 AM 76.8°F24.9°C 74.9°F23.8°C 94% 1.2 mph WSW1.9 kmh WSW -- 29.77 in1008.1 mb - 0.00 in0.0 mm 0.00 in0.0 mm
08:00 AM 77.5°F25.3°C 75.0°F23.9°C 92% Calm Calm 1.2 mph1.9 kmh 29.76 in1007.8 mb - 0.00 in0.0 mm 0.00 in0.0 mm
08:10 AM 78.1°F25.6°C 75.3°F24.1°C 91% 3.5 mph NW5.6 kmh NW 5.8 mph9.3 kmh 29.77 in1008.1 mb - 0.00 in0.0 mm 0.00 in0.0 mm
08:20 AM 78.0°F25.6°C 75.5°F24.2°C 92% 1.2 mph W1.9 kmh W 4.6 mph7.4 kmh 29.76 in1007.8 mb - 0.00 in0.0 mm 0.00 in0.0 mm
08:30 AM 77.7°F25.4°C 75.2°F24.0°C 92% 3.5 mph WSW5.6 kmh WSW 5.8 mph9.3 kmh 29.76 in1007.8 mb - 0.00 in0.0 mm 0.00 in0.0 mm
08:40 AM 77.9°F25.5°C 75.1°F23.9°C 91% 2.3 mph WNW3.7 kmh WNW 4.6 mph7.4 kmh 29.76 in1007.8 mb - 0.00 in0.0 mm 0.00 in0.0 mm
08:50 AM 77.8°F25.4°C 75.3°F24.1°C 92% 4.6 mph NW7.4 kmh NW 6.9 mph11.1 kmh 29.77 in1008.1 mb - 0.01 in0.3 mm 0.01 in0.3 mm
09:00 AM 77.1°F25.1°C 75.5°F24.2°C 95% 4.6 mph WNW7.4 kmh WNW 6.9 mph11.1 kmh 29.77 in1008.1 mb - 0.03 in0.8 mm 0.03 in0.8 mm
09:10 AM 76.8°F24.9°C 75.6°F24.2°C 96% 3.5 mph NW5.6 kmh NW 5.8 mph9.3 kmh 29.77 in1008.1 mb - 0.02 in0.5 mm 0.05 in1.3 mm
09:20 AM 77.8°F25.4°C 75.9°F24.4°C 94% 3.5 mph NW5.6 kmh NW 5.8 mph9.3 kmh 29.77 in1008.1 mb - 0.00 in0.0 mm 0.05 in1.3 mm
09:30 AM 78.8°F26.0°C 76.3°F24.6°C 92% 1.2 mph NW1.9 kmh NW 3.5 mph5.6 kmh 29.76 in1007.8 mb - 0.00 in0.0 mm 0.05 in1.3 mm
09:40 AM 79.6°F26.4°C 76.8°F24.9°C 91% 4.6 mph NW7.4 kmh NW 5.8 mph9.3 kmh 29.76 in1007.8 mb - 0.00 in0.0 mm 0.05 in1.3 mm
09:50 AM 80.3°F26.8°C 77.8°F25.4°C 92% 3.5 mph WNW5.6 kmh WNW 5.8 mph9.3 kmh 29.76 in1007.8 mb - 0.00 in0.0 mm 0.05 in1.3 mm
10:00 AM 80.1°F26.7°C 76.6°F24.8°C 89% 2.3 mph W3.7 kmh W 2.3 mph3.7 kmh 29.76 in1007.8 mb - 0.00 in0.0 mm 0.05 in1.3 mm
10:10 AM 80.1°F26.7°C 76.2°F24.6°C 88% 4.6 mph NW7.4 kmh NW 5.8 mph9.3 kmh 29.77 in1008.1 mb - 0.00 in0.0 mm 0.05 in1.3 mm
10:20 AM 81.2°F27.3°C 76.6°F24.8°C 86% 2.3 mph NW3.7 kmh NW 3.5 mph5.6 kmh 29.76 in1007.8 mb - 0.00 in0.0 mm 0.05 in1.3 mm
10:30 AM 82.7°F28.2°C 77.7°F25.4°C 85% 1.2 mph NNW1.9 kmh NNW 1.2 mph1.9 kmh 29.76 in1007.8 mb - 0.00 in0.0 mm 0.05 in1.3 mm
10:40 AM 83.1°F28.4°C 77.1°F25.1°C 82% 4.6 mph NW7.4 kmh NW 5.8 mph9.3 kmh 29.77 in1008.1 mb - 0.00 in0.0 mm 0.05 in1.3 mm
10:50 AM 82.8°F28.2°C 76.0°F24.4°C 80% 3.5 mph W5.6 kmh W 4.6 mph7.4 kmh 29.77 in1008.1 mb - 0.00 in0.0 mm 0.05 in1.3 mm
11:00 AM 84.2°F29.0°C 77.3°F25.2°C 80% 3.5 mph NW5.6 kmh NW 5.8 mph9.3 kmh 29.76 in1007.8 mb - 0.00 in0.0 mm 0.05 in1.3 mm
11:10 AM 84.1°F28.9°C 78.0°F25.6°C 82% 5.8 mph WNW9.3 kmh WNW 10.4 mph16.7 kmh 29.77 in1008.1 mb - 0.00 in0.0 mm 0.05 in1.3 mm
11:20 AM 84.3°F29.1°C 75.5°F24.2°C 75% 3.5 mph NW5.6 kmh NW 5.8 mph9.3 kmh 29.77 in1008.1 mb - 0.00 in0.0 mm 0.05 in1.3 mm
11:30 AM 84.5°F29.2°C 75.7°F24.3°C 75% 5.8 mph WNW9.3 kmh WNW 9.2 mph14.8 kmh 29.77 in1008.1 mb - 0.00 in0.0 mm 0.05 in1.3 mm
11:40 AM 85.1°F29.5°C 74.2°F23.4°C 70% 4.6 mph W7.4 kmh W 6.9 mph11.1 kmh 29.77 in1008.1 mb - 0.00 in0.0 mm 0.05 in1.3 mm
11:50 AM 85.1°F29.5°C 76.3°F24.6°C 75% 3.5 mph WNW5.6 kmh WNW 8.1 mph13.0 kmh 29.77 in1008.1 mb - 0.00 in0.0 mm 0.05 in1.3 mm
12:00 PM 84.9°F29.4°C 77.6°F25.3°C 79% 5.8 mph WNW9.3 kmh WNW 10.4 mph16.7 kmh 29.76 in1007.8 mb - 0.00 in0.0 mm 0.05 in1.3 mm
12:10 PM 85.0°F29.4°C 75.0°F23.9°C 72% 6.9 mph W11.1 kmh W 9.2 mph14.8 kmh 29.77 in1008.1 mb - 0.00 in0.0 mm 0.05 in1.3 mm
12:20 PM 85.6°F29.8°C 75.1°F23.9°C 71% 3.5 mph NNW5.6 kmh NNW 5.8 mph9.3 kmh 29.77 in1008.1 mb - 0.00 in0.0 mm 0.05 in1.3 mm
12:30 PM 86.2°F30.1°C 74.8°F23.8°C 69% 2.3 mph WNW3.7 kmh WNW 3.5 mph5.6 kmh 29.76 in1007.8 mb - 0.00 in0.0 mm 0.05 in1.3 mm
12:40 PM 86.1°F30.1°C 73.0°F22.8°C 65% 4.6 mph WNW7.4 kmh WNW 8.1 mph13.0 kmh 29.76 in1007.8 mb - 0.00 in0.0 mm 0.05 in1.3 mm
12:50 PM 86.7°F30.4°C 74.4°F23.6°C 67% 2.3 mph NW3.7 kmh NW 4.6 mph7.4 kmh 29.76 in1007.8 mb - 0.00 in0.0 mm 0.05 in1.3 mm
01:00 PM 86.9°F30.5°C 73.7°F23.2°C 65% 3.5 mph NW5.6 kmh NW 6.9 mph11.1 kmh 29.76 in1007.8 mb - 0.00 in0.0 mm 0.05 in1.3 mm
01:10 PM 86.4°F30.2°C 75.0°F23.9°C 69% 4.6 mph NW7.4 kmh NW 4.6 mph7.4 kmh 29.76 in1007.8 mb - 0.00 in0.0 mm 0.05 in1.3 mm
01:20 PM 86.7°F30.4°C 74.4°F23.6°C 67% 2.3 mph W3.7 kmh W 6.9 mph11.1 kmh 29.76 in1007.8 mb - 0.00 in0.0 mm 0.05 in1.3 mm
01:30 PM 87.7°F30.9°C 73.5°F23.1°C 63% 6.9 mph NW11.1 kmh NW 9.2 mph14.8 kmh 29.75 in1007.5 mb - 0.00 in0.0 mm 0.05 in1.3 mm
01:40 PM 87.5°F30.8°C 73.3°F22.9°C 63% 5.8 mph NW9.3 kmh NW 8.1 mph13.0 kmh 29.75 in1007.5 mb - 0.00 in0.0 mm 0.05 in1.3 mm
01:50 PM 87.8°F31.0°C 72.2°F22.3°C 60% 6.9 mph NW11.1 kmh NW 11.5 mph18.5 kmh 29.75 in1007.5 mb - 0.00 in0.0 mm 0.05 in1.3 mm
02:00 PM 88.0°F31.1°C 73.3°F22.9°C 62% 2.3 mph W3.7 kmh W 11.5 mph18.5 kmh 29.75 in1007.5 mb - 0.00 in0.0 mm 0.05 in1.3 mm
02:10 PM 87.8°F31.0°C 72.2°F22.3°C 60% 2.3 mph NW3.7 kmh NW 5.8 mph9.3 kmh 29.75 in1007.5 mb - 0.00 in0.0 mm 0.05 in1.3 mm
02:20 PM 88.0°F31.1°C 72.9°F22.7°C 61% 5.8 mph NW9.3 kmh NW 6.9 mph11.1 kmh 29.75 in1007.5 mb - 0.00 in0.0 mm 0.05 in1.3 mm
02:30 PM 87.5°F30.8°C 72.9°F22.7°C 62% 5.8 mph WNW9.3 kmh WNW 10.4 mph16.7 kmh 29.74 in1007.1 mb - 0.00 in0.0 mm 0.05 in1.3 mm
02:40 PM 88.2°F31.2°C 74.1°F23.4°C 63% 5.8 mph NW9.3 kmh NW 11.5 mph18.5 kmh 29.74 in1007.1 mb - 0.00 in0.0 mm 0.05 in1.3 mm
02:50 PM 87.7°F30.9°C 72.6°F22.6°C 61% 6.9 mph WSW11.1 kmh WSW 13.8 mph22.2 kmh 29.74 in1007.1 mb - 0.00 in0.0 mm 0.05 in1.3 mm
03:00 PM 87.3°F30.7°C 73.2°F22.9°C 63% 3.5 mph NW5.6 kmh NW 3.5 mph5.6 kmh 29.74 in1007.1 mb - 0.00 in0.0 mm 0.05 in1.3 mm
03:10 PM 87.9°F31.1°C 66.9°F19.4°C 50% 8.1 mph W13.0 kmh W 13.8 mph22.2 kmh 29.74 in1007.1 mb - 0.00 in0.0 mm 0.05 in1.3 mm
03:20 PM 87.6°F30.9°C 69.5°F20.8°C 55% 5.8 mph W9.3 kmh W 10.4 mph16.7 kmh 29.74 in1007.1 mb - 0.00 in0.0 mm 0.05 in1.3 mm
03:30 PM 87.9°F31.1°C 69.7°F20.9°C 55% 4.6 mph W7.4 kmh W 6.9 mph11.1 kmh 29.73 in1006.8 mb - 0.00 in0.0 mm 0.05 in1.3 mm
03:40 PM 88.2°F31.2°C 72.5°F22.5°C 60% 5.8 mph WNW9.3 kmh WNW 4.6 mph7.4 kmh 29.73 in1006.8 mb - 0.00 in0.0 mm 0.05 in1.3 mm
03:50 PM 88.2°F31.2°C 70.0°F21.1°C 55% 4.6 mph WSW7.4 kmh WSW 6.9 mph11.1 kmh 29.72 in1006.4 mb - 0.00 in0.0 mm 0.05 in1.3 mm
04:00 PM 88.1°F31.2°C 69.4°F20.8°C 54% 5.8 mph SW9.3 kmh SW 11.5 mph18.5 kmh 29.72 in1006.4 mb - 0.00 in0.0 mm 0.05 in1.3 mm
04:10 PM 87.9°F31.1°C 69.2°F20.7°C 54% 6.9 mph SW11.1 kmh SW 10.4 mph16.7 kmh 29.71 in1006.1 mb - 0.00 in0.0 mm 0.05 in1.3 mm
04:20 PM 87.7°F30.9°C 70.6°F21.4°C 57% 4.6 mph SW7.4 kmh SW 10.4 mph16.7 kmh 29.71 in1006.1 mb - 0.00 in0.0 mm 0.05 in1.3 mm
04:30 PM 88.0°F31.1°C 70.9°F21.6°C 57% 5.8 mph WSW9.3 kmh WSW 9.2 mph14.8 kmh 29.71 in1006.1 mb - 0.00 in0.0 mm 0.05 in1.3 mm
04:40 PM 87.4°F30.8°C 72.3°F22.4°C 61% 4.6 mph SSW7.4 kmh SSW 6.9 mph11.1 kmh 29.71 in1006.1 mb - 0.00 in0.0 mm 0.05 in1.3 mm
04:50 PM 87.8°F31.0°C 73.6°F23.1°C 63% 6.9 mph SW11.1 kmh SW 8.1 mph13.0 kmh 29.71 in1006.1 mb - 0.00 in0.0 mm 0.05 in1.3 mm
05:00 PM 86.7°F30.4°C 71.6°F22.0°C 61% 5.8 mph SW9.3 kmh SW 8.1 mph13.0 kmh 29.72 in1006.4 mb - 0.00 in0.0 mm 0.05 in1.3 mm
05:10 PM 87.6°F30.9°C 73.4°F23.0°C 63% 5.8 mph SW9.3 kmh SW 12.7 mph20.4 kmh 29.73 in1006.8 mb - 0.00 in0.0 mm 0.05 in1.3 mm
05:20 PM 85.5°F29.7°C 72.4°F22.4°C 65% 4.6 mph SW7.4 kmh SW 4.6 mph7.4 kmh 29.73 in1006.8 mb - 0.00 in0.0 mm 0.05 in1.3 mm
05:30 PM 85.0°F29.4°C 73.3°F22.9°C 68% 6.9 mph SW11.1 kmh SW 8.1 mph13.0 kmh 29.71 in1006.1 mb - 0.00 in0.0 mm 0.05 in1.3 mm
05:40 PM 85.2°F29.6°C 73.0°F22.8°C 67% 3.5 mph WSW5.6 kmh WSW 6.9 mph11.1 kmh 29.71 in1006.1 mb - 0.00 in0.0 mm 0.05 in1.3 mm
05:50 PM 85.7°F29.8°C 73.9°F23.3°C 68% 5.8 mph N9.3 kmh N 12.7 mph20.4 kmh 29.75 in1007.5 mb - 0.00 in0.0 mm 0.05 in1.3 mm
06:00 PM 75.3°F24.1°C 64.5°F18.1°C 69% 15.0 mph NE24.1 kmh NE 20.7 mph33.3 kmh 29.76 in1007.8 mb - 0.00 in0.0 mm 0.05 in1.3 mm
06:10 PM 71.3°F21.8°C 65.5°F18.6°C 82% 1.2 mph NE1.9 kmh NE 3.5 mph5.6 kmh 29.77 in1008.1 mb - 0.00 in0.0 mm 0.05 in1.3 mm
06:20 PM 73.0°F22.8°C 66.8°F19.3°C 81% 4.6 mph E7.4 kmh E 9.2 mph14.8 kmh 29.77 in1008.1 mb - 0.00 in0.0 mm 0.05 in1.3 mm
06:30 PM 73.2°F22.9°C 65.9°F18.8°C 78% 6.9 mph ENE11.1 kmh ENE 9.2 mph14.8 kmh 29.77 in1008.1 mb - 0.00 in0.0 mm 0.05 in1.3 mm
06:40 PM 72.2°F22.3°C 66.4°F19.1°C 82% 2.3 mph E3.7 kmh E 2.3 mph3.7 kmh 29.76 in1007.8 mb - 0.00 in0.0 mm 0.05 in1.3 mm
06:50 PM 72.2°F22.3°C 66.0°F18.9°C 81% 3.5 mph E5.6 kmh E 5.8 mph9.3 kmh 29.76 in1007.8 mb - 0.00 in0.0 mm 0.05 in1.3 mm
07:00 PM 72.1°F22.3°C 66.3°F19.1°C 82% 4.6 mph ESE7.4 kmh ESE 8.1 mph13.0 kmh 29.77 in1008.1 mb - 0.00 in0.0 mm 0.05 in1.3 mm
07:10 PM 72.1°F22.3°C 66.3°F19.1°C 82% 4.6 mph SE7.4 kmh SE 5.8 mph9.3 kmh 29.77 in1008.1 mb - 0.00 in0.0 mm 0.05 in1.3 mm
07:20 PM 72.0°F22.2°C 66.2°F19.0°C 82% 2.3 mph S3.7 kmh S 5.8 mph9.3 kmh 29.76 in1007.8 mb - 0.00 in0.0 mm 0.05 in1.3 mm
07:30 PM 72.0°F22.2°C 65.5°F18.6°C 80% 1.2 mph SSW1.9 kmh SSW 3.5 mph5.6 kmh 29.76 in1007.8 mb - 0.00 in0.0 mm 0.05 in1.3 mm
07:40 PM 72.3°F22.4°C 66.5°F19.2°C 82% 3.5 mph SSW5.6 kmh SSW 4.6 mph7.4 kmh 29.76 in1007.8 mb - 0.00 in0.0 mm 0.05 in1.3 mm
07:50 PM 72.0°F22.2°C 66.2°F19.0°C 82% 2.3 mph SW3.7 kmh SW 4.6 mph7.4 kmh 29.75 in1007.5 mb - 0.00 in0.0 mm 0.05 in1.3 mm
08:00 PM 71.6°F22.0°C 66.2°F19.0°C 83% 2.3 mph SW3.7 kmh SW 3.5 mph5.6 kmh 29.75 in1007.5 mb - 0.00 in0.0 mm 0.05 in1.3 mm
08:10 PM 71.5°F21.9°C 66.4°F19.1°C 84% 1.2 mph NW1.9 kmh NW 3.5 mph5.6 kmh 29.76 in1007.8 mb - 0.00 in0.0 mm 0.05 in1.3 mm
08:20 PM 71.5°F21.9°C 66.4°F19.1°C 84% 2.3 mph NW3.7 kmh NW 3.5 mph5.6 kmh 29.76 in1007.8 mb - 0.00 in0.0 mm 0.05 in1.3 mm
08:30 PM 70.8°F21.6°C 66.4°F19.1°C 86% 1.2 mph WNW1.9 kmh WNW 2.3 mph3.7 kmh 29.76 in1007.8 mb - 0.00 in0.0 mm 0.05 in1.3 mm
08:40 PM 70.8°F21.6°C 66.7°F19.3°C 87% 1.2 mph NW1.9 kmh NW 2.3 mph3.7 kmh 29.77 in1008.1 mb - 0.00 in0.0 mm 0.05 in1.3 mm
08:50 PM 70.8°F21.6°C 66.7°F19.3°C 87% 1.2 mph WNW1.9 kmh WNW 2.3 mph3.7 kmh 29.77 in1008.1 mb - 0.00 in0.0 mm 0.05 in1.3 mm
09:00 PM 70.6°F21.4°C 66.6°F19.2°C 87% Calm Calm -- 29.77 in1008.1 mb - 0.00 in0.0 mm 0.05 in1.3 mm
09:10 PM 70.3°F21.3°C 66.9°F19.4°C 89% Calm Calm 3.5 mph5.6 kmh 29.78 in1008.5 mb - 0.00 in0.0 mm 0.05 in1.3 mm
09:20 PM 70.2°F21.2°C 66.8°F19.3°C 89% Calm Calm 3.5 mph5.6 kmh 29.78 in1008.5 mb - 0.00 in0.0 mm 0.05 in1.3 mm
09:30 PM 70.0°F21.1°C 66.9°F19.4°C 90% 1.2 mph WNW1.9 kmh WNW 3.5 mph5.6 kmh 29.79 in1008.8 mb - 0.00 in0.0 mm 0.05 in1.3 mm
09:40 PM 69.8°F21.0°C 66.7°F19.3°C 90% Calm Calm -- 29.79 in1008.8 mb - 0.00 in0.0 mm 0.05 in1.3 mm
09:50 PM 69.9°F21.1°C 66.9°F19.4°C 90% Calm Calm 2.3 mph3.7 kmh 29.79 in1008.8 mb - 0.00 in0.0 mm 0.05 in1.3 mm
10:00 PM 69.6°F20.9°C 66.9°F19.4°C 91% Calm Calm -- 29.79 in1008.8 mb - 0.00 in0.0 mm 0.05 in1.3 mm
10:10 PM 69.2°F20.7°C 66.5°F19.2°C 91% Calm Calm -- 29.79 in1008.8 mb - 0.00 in0.0 mm 0.05 in1.3 mm
10:20 PM 69.4°F20.8°C 66.4°F19.1°C 90% 1.2 mph WNW1.9 kmh WNW 3.5 mph5.6 kmh 29.80 in1009.1 mb - 0.00 in0.0 mm 0.05 in1.3 mm
10:30 PM 69.5°F20.8°C 66.4°F19.1°C 90% 2.3 mph NW3.7 kmh NW 4.6 mph7.4 kmh 29.80 in1009.1 mb - 0.00 in0.0 mm 0.05 in1.3 mm
10:40 PM 69.3°F20.7°C 66.2°F19.0°C 90% Calm Calm -- 29.80 in1009.1 mb - 0.00 in0.0 mm 0.05 in1.3 mm
10:50 PM 69.0°F20.6°C 66.3°F19.1°C 91% Calm Calm -- 29.81 in1009.5 mb - 0.00 in0.0 mm 0.05 in1.3 mm
11:00 PM 68.7°F20.4°C 66.3°F19.1°C 92% Calm Calm -- 29.81 in1009.5 mb - 0.00 in0.0 mm 0.05 in1.3 mm
11:10 PM 68.8°F20.4°C 66.4°F19.1°C 92% Calm Calm -- 29.82 in1009.8 mb - 0.00 in0.0 mm 0.05 in1.3 mm
11:20 PM 68.5°F20.3°C 66.4°F19.1°C 93% Calm Calm -- 29.82 in1009.8 mb - 0.00 in0.0 mm 0.05 in1.3 mm
11:30 PM 68.7°F20.4°C 66.9°F19.4°C 94% Calm Calm -- 29.82 in1009.8 mb - 0.00 in0.0 mm 0.05 in1.3 mm
11:40 PM 68.1°F20.1°C 66.3°F19.1°C 94% Calm Calm -- 29.83 in1010.2 mb - 0.00 in0.0 mm 0.05 in1.3 mm
11:50 PM 67.3°F19.6°C 65.8°F18.8°C 95% Calm Calm -- 29.83 in1010.2 mb - 0.00 in0.0 mm 0.05 in1.3 mm